sensor_id;sensor_type;location;lat;lon;timestamp;P1;durP1;ratioP1;P2;durP2;ratioP2
11596;SDS011;5854;48.072;16.286;2023-07-24T06:38:26;3.35;;;3.03;;
11596;SDS011;5854;48.072;16.286;2023-07-24T07:15:16;3.60;;;3.05;;
11596;SDS011;5854;48.072;16.286;2023-07-24T07:17:43;3.88;;;3.58;;
11596;SDS011;5854;48.072;16.286;2023-07-24T07:20:10;5.72;;;3.13;;
11596;SDS011;5854;48.072;16.286;2023-07-24T07:22:37;5.35;;;3.15;;
11596;SDS011;5854;48.072;16.286;2023-07-24T07:25:04;4.13;;;3.25;;
11596;SDS011;5854;48.072;16.286;2023-07-24T07:27:32;3.47;;;2.97;;
11596;SDS011;5854;48.072;16.286;2023-07-24T07:29:59;2.97;;;2.78;;
11596;SDS011;5854;48.072;16.286;2023-07-24T07:32:28;2.85;;;2.25;;
11596;SDS011;5854;48.072;16.286;2023-07-24T07:34:55;3.28;;;2.97;;
11596;SDS011;5854;48.072;16.286;2023-07-24T07:37:22;3.08;;;2.78;;
11596;SDS011;5854;48.072;16.286;2023-07-24T07:39:49;2.80;;;2.60;;
11596;SDS011;5854;48.072;16.286;2023-07-24T07:42:16;3.65;;;2.50;;
11596;SDS011;5854;48.072;16.286;2023-07-24T07:44:43;4.07;;;2.50;;
11596;SDS011;5854;48.072;16.286;2023-07-24T07:47:10;3.88;;;2.80;;
11596;SDS011;5854;48.072;16.286;2023-07-24T07:49:39;3.38;;;2.45;;
11596;SDS011;5854;48.072;16.286;2023-07-24T07:52:07;3.15;;;2.80;;
11596;SDS011;5854;48.072;16.286;2023-07-24T07:54:34;2.35;;;2.10;;
11596;SDS011;5854;48.072;16.286;2023-07-24T07:57:01;2.53;;;2.05;;
11596;SDS011;5854;48.072;16.286;2023-07-24T07:59:28;4.30;;;2.70;;
11596;SDS011;5854;48.072;16.286;2023-07-24T08:04:31;4.32;;;2.00;;
11596;SDS011;5854;48.072;16.286;2023-07-24T08:07:01;2.28;;;2.08;;
11596;SDS011;5854;48.072;16.286;2023-07-24T08:19:50;2.55;;;2.35;;
11596;SDS011;5854;48.072;16.286;2023-07-24T08:27:44;2.80;;;2.53;;
11596;SDS011;5854;48.072;16.286;2023-07-24T08:30:12;3.53;;;2.70;;
11596;SDS011;5854;48.072;16.286;2023-07-24T08:37:36;2.63;;;2.42;;
11596;SDS011;5854;48.072;16.286;2023-07-24T08:40:06;2.92;;;2.72;;
11596;SDS011;5854;48.072;16.286;2023-07-24T08:42:40;2.80;;;2.60;;
11596;SDS011;5854;48.072;16.286;2023-07-24T08:45:16;2.13;;;1.92;;
11596;SDS011;5854;48.072;16.286;2023-07-24T08:47:43;2.38;;;2.17;;
11596;SDS011;5854;48.072;16.286;2023-07-24T08:50:14;2.60;;;2.40;;
11596;SDS011;5854;48.072;16.286;2023-07-24T08:52:59;3.17;;;2.25;;
11596;SDS011;5854;48.072;16.286;2023-07-24T09:13:32;3.03;;;2.42;;
11596;SDS011;5854;48.072;16.286;2023-07-24T09:36:43;2.42;;;2.22;;
11596;SDS011;5854;48.072;16.286;2023-07-24T09:39:10;2.75;;;2.13;;
11596;SDS011;5854;48.072;16.286;2023-07-24T09:41:38;4.30;;;2.58;;
11596;SDS011;5854;48.072;16.286;2023-07-24T09:44:06;2.17;;;2.05;;
11596;SDS011;5854;48.072;16.286;2023-07-24T09:46:40;2.45;;;2.10;;
11596;SDS011;5854;48.072;16.286;2023-07-24T09:49:10;3.53;;;2.65;;
11596;SDS011;5854;48.072;16.286;2023-07-24T09:51:43;2.43;;;2.23;;
11596;SDS011;5854;48.072;16.286;2023-07-24T09:59:43;2.63;;;2.28;;
11596;SDS011;5854;48.072;16.286;2023-07-24T10:02:19;2.30;;;2.10;;
11596;SDS011;5854;48.072;16.286;2023-07-24T10:04:50;2.78;;;2.28;;
11596;SDS011;5854;48.072;16.286;2023-07-24T10:07:18;4.07;;;2.30;;
11596;SDS011;5854;48.072;16.286;2023-07-24T10:09:48;2.50;;;2.22;;
11596;SDS011;5854;48.072;16.286;2023-07-24T10:12:19;3.25;;;2.95;;
11596;SDS011;5854;48.072;16.286;2023-07-24T10:14:48;2.97;;;2.10;;
11596;SDS011;5854;48.072;16.286;2023-07-24T10:20:01;4.07;;;2.53;;
11596;SDS011;5854;48.072;16.286;2023-07-24T10:22:33;2.42;;;2.22;;
11596;SDS011;5854;48.072;16.286;2023-07-24T10:25:03;3.17;;;2.38;;
11596;SDS011;5854;48.072;16.286;2023-07-24T10:27:31;3.13;;;2.83;;
11596;SDS011;5854;48.072;16.286;2023-07-24T10:30:04;3.25;;;2.60;;
11596;SDS011;5854;48.072;16.286;2023-07-24T10:35:09;3.15;;;2.55;;
11596;SDS011;5854;48.072;16.286;2023-07-24T10:37:38;2.53;;;2.33;;
11596;SDS011;5854;48.072;16.286;2023-07-24T10:40:06;2.42;;;2.22;;
11596;SDS011;5854;48.072;16.286;2023-07-24T10:42:45;2.95;;;2.53;;
11596;SDS011;5854;48.072;16.286;2023-07-24T10:45:13;4.38;;;2.80;;
11596;SDS011;5854;48.072;16.286;2023-07-24T10:47:40;4.60;;;2.65;;
11596;SDS011;5854;48.072;16.286;2023-07-24T10:50:07;3.35;;;3.05;;
11596;SDS011;5854;48.072;16.286;2023-07-24T10:52:35;6.63;;;3.20;;
11596;SDS011;5854;48.072;16.286;2023-07-24T10:55:04;3.53;;;2.90;;
11596;SDS011;5854;48.072;16.286;2023-07-24T10:57:32;3.15;;;2.95;;
11596;SDS011;5854;48.072;16.286;2023-07-24T11:00:00;2.92;;;2.65;;
11596;SDS011;5854;48.072;16.286;2023-07-24T11:02:27;2.53;;;2.33;;
11596;SDS011;5854;48.072;16.286;2023-07-24T11:04:54;3.15;;;2.85;;
11596;SDS011;5854;48.072;16.286;2023-07-24T11:07:26;2.70;;;2.45;;
11596;SDS011;5854;48.072;16.286;2023-07-24T11:10:00;4.72;;;2.78;;
11596;SDS011;5854;48.072;16.286;2023-07-24T11:12:33;3.42;;;3.00;;
11596;SDS011;5854;48.072;16.286;2023-07-24T11:15:11;3.10;;;2.53;;
11596;SDS011;5854;48.072;16.286;2023-07-24T11:17:40;3.13;;;2.90;;
11596;SDS011;5854;48.072;16.286;2023-07-24T11:20:11;2.80;;;2.55;;
11596;SDS011;5854;48.072;16.286;2023-07-24T11:22:47;3.70;;;3.20;;
11596;SDS011;5854;48.072;16.286;2023-07-24T11:25:14;2.80;;;2.60;;
11596;SDS011;5854;48.072;16.286;2023-07-24T11:27:43;3.67;;;3.03;;
11596;SDS011;5854;48.072;16.286;2023-07-24T11:30:12;3.67;;;3.47;;
11596;SDS011;5854;48.072;16.286;2023-07-24T11:32:45;2.97;;;2.78;;
11596;SDS011;5854;48.072;16.286;2023-07-24T11:35:13;3.20;;;2.83;;
11596;SDS011;5854;48.072;16.286;2023-07-24T11:37:40;3.67;;;3.38;;
11596;SDS011;5854;48.072;16.286;2023-07-24T12:19:09;4.80;;;4.40;;
11596;SDS011;5854;48.072;16.286;2023-07-24T12:29:59;5.25;;;4.15;;
11596;SDS011;5854;48.072;16.286;2023-07-24T12:32:30;6.07;;;4.80;;
11596;SDS011;5854;48.072;16.286;2023-07-24T12:37:38;4.53;;;4.05;;
11596;SDS011;5854;48.072;16.286;2023-07-24T12:40:06;4.10;;;3.80;;
11596;SDS011;5854;48.072;16.286;2023-07-24T12:42:38;3.83;;;3.53;;
11596;SDS011;5854;48.072;16.286;2023-07-24T12:45:09;4.15;;;3.83;;
11596;SDS011;5854;48.072;16.286;2023-07-24T12:52:51;4.80;;;4.40;;
11596;SDS011;5854;48.072;16.286;2023-07-24T12:55:18;4.13;;;3.70;;
11596;SDS011;5854;48.072;16.286;2023-07-24T12:57:46;4.95;;;4.55;;
11596;SDS011;5854;48.072;16.286;2023-07-24T13:00:13;4.25;;;3.85;;
11596;SDS011;5854;48.072;16.286;2023-07-24T13:02:43;3.67;;;3.37;;
11596;SDS011;5854;48.072;16.286;2023-07-24T13:05:10;4.75;;;4.32;;
11596;SDS011;5854;48.072;16.286;2023-07-24T13:07:38;3.70;;;3.40;;
11596;SDS011;5854;48.072;16.286;2023-07-24T13:10:09;3.78;;;3.47;;
11596;SDS011;5854;48.072;16.286;2023-07-24T13:12:36;3.35;;;3.05;;
11596;SDS011;5854;48.072;16.286;2023-07-24T13:15:03;3.47;;;3.13;;
11596;SDS011;5854;48.072;16.286;2023-07-24T13:17:32;3.95;;;3.65;;
11596;SDS011;5854;48.072;16.286;2023-07-24T13:20:00;4.47;;;3.75;;
11596;SDS011;5854;48.072;16.286;2023-07-24T13:22:28;4.47;;;3.92;;
11596;SDS011;5854;48.072;16.286;2023-07-24T15:00:25;3.53;;;3.22;;
11596;SDS011;5854;48.072;16.286;2023-07-24T15:08:04;3.95;;;3.53;;
11596;SDS011;5854;48.072;16.286;2023-07-24T15:26:03;3.45;;;3.15;;
11596;SDS011;5854;48.072;16.286;2023-07-24T15:31:08;3.70;;;2.88;;
11596;SDS011;5854;48.072;16.286;2023-07-24T15:33:36;2.95;;;2.75;;
11596;SDS011;5854;48.072;16.286;2023-07-24T15:36:03;3.70;;;3.40;;
11596;SDS011;5854;48.072;16.286;2023-07-24T15:38:33;3.53;;;3.17;;
11596;SDS011;5854;48.072;16.286;2023-07-24T15:41:01;3.83;;;3.53;;
11596;SDS011;5854;48.072;16.286;2023-07-24T15:43:28;3.17;;;2.88;;
11596;SDS011;5854;48.072;16.286;2023-07-24T15:45:56;4.10;;;3.70;;
11596;SDS011;5854;48.072;16.286;2023-07-24T15:48:24;4.22;;;3.80;;
11596;SDS011;5854;48.072;16.286;2023-07-24T15:50:51;4.53;;;3.53;;
11596;SDS011;5854;48.072;16.286;2023-07-24T15:53:18;2.95;;;2.75;;
11596;SDS011;5854;48.072;16.286;2023-07-24T15:55:45;3.53;;;3.10;;
11596;SDS011;5854;48.072;16.286;2023-07-24T15:58:14;2.80;;;2.58;;
11596;SDS011;5854;48.072;16.286;2023-07-24T16:00:41;3.20;;;3.00;;
11596;SDS011;5854;48.072;16.286;2023-07-24T16:03:08;3.40;;;3.10;;
11596;SDS011;5854;48.072;16.286;2023-07-24T16:05:35;3.38;;;3.08;;
11596;SDS011;5854;48.072;16.286;2023-07-24T16:08:03;3.50;;;3.13;;
11596;SDS011;5854;48.072;16.286;2023-07-24T16:10:31;5.68;;;3.85;;
11596;SDS011;5854;48.072;16.286;2023-07-24T16:12:58;4.80;;;2.90;;
11596;SDS011;5854;48.072;16.286;2023-07-24T16:15:27;3.70;;;2.63;;
11596;SDS011;5854;48.072;16.286;2023-07-24T16:17:54;4.68;;;3.65;;
11596;SDS011;5854;48.072;16.286;2023-07-24T16:20:21;3.40;;;3.10;;
11596;SDS011;5854;48.072;16.286;2023-07-24T16:22:48;3.28;;;2.92;;
11596;SDS011;5854;48.072;16.286;2023-07-24T16:25:15;3.08;;;2.78;;
11596;SDS011;5854;48.072;16.286;2023-07-24T16:27:43;4.28;;;3.97;;
11596;SDS011;5854;48.072;16.286;2023-07-24T16:30:10;2.90;;;2.70;;
11596;SDS011;5854;48.072;16.286;2023-07-24T16:32:39;5.43;;;3.55;;
11596;SDS011;5854;48.072;16.286;2023-07-24T16:35:09;4.03;;;3.72;;
11596;SDS011;5854;48.072;16.286;2023-07-24T16:37:36;3.35;;;3.15;;
11596;SDS011;5854;48.072;16.286;2023-07-24T16:40:04;3.35;;;3.05;;
11596;SDS011;5854;48.072;16.286;2023-07-24T16:42:33;3.67;;;3.38;;
11596;SDS011;5854;48.072;16.286;2023-07-24T16:45:01;4.53;;;3.22;;
11596;SDS011;5854;48.072;16.286;2023-07-24T16:47:28;3.53;;;3.22;;
11596;SDS011;5854;48.072;16.286;2023-07-24T16:49:57;3.60;;;2.85;;
11596;SDS011;5854;48.072;16.286;2023-07-24T16:52:25;3.03;;;2.80;;
11596;SDS011;5854;48.072;16.286;2023-07-24T16:54:52;9.15;;;2.78;;
11596;SDS011;5854;48.072;16.286;2023-07-24T16:57:19;4.18;;;2.97;;
11596;SDS011;5854;48.072;16.286;2023-07-24T16:59:46;2.80;;;2.60;;
11596;SDS011;5854;48.072;16.286;2023-07-24T17:02:14;3.83;;;3.10;;
11596;SDS011;5854;48.072;16.286;2023-07-24T17:04:41;2.90;;;2.70;;
11596;SDS011;5854;48.072;16.286;2023-07-24T17:07:09;3.38;;;2.63;;
11596;SDS011;5854;48.072;16.286;2023-07-24T17:09:36;2.72;;;2.53;;
11596;SDS011;5854;48.072;16.286;2023-07-24T17:12:04;4.28;;;2.70;;
11596;SDS011;5854;48.072;16.286;2023-07-24T17:14:33;3.03;;;2.83;;
11596;SDS011;5854;48.072;16.286;2023-07-24T17:17:00;3.88;;;3.35;;
11596;SDS011;5854;48.072;16.286;2023-07-24T17:19:27;2.92;;;2.63;;
11596;SDS011;5854;48.072;16.286;2023-07-24T17:21:55;2.70;;;2.20;;
11596;SDS011;5854;48.072;16.286;2023-07-24T17:26:55;4.13;;;2.85;;
11596;SDS011;5854;48.072;16.286;2023-07-24T17:29:23;2.72;;;2.53;;
11596;SDS011;5854;48.072;16.286;2023-07-24T17:31:51;4.13;;;3.72;;
11596;SDS011;5854;48.072;16.286;2023-07-24T17:34:18;2.95;;;2.75;;
11596;SDS011;5854;48.072;16.286;2023-07-24T17:36:45;3.47;;;3.17;;
11596;SDS011;5854;48.072;16.286;2023-07-24T17:39:12;3.33;;;2.65;;
11596;SDS011;5854;48.072;16.286;2023-07-24T17:41:39;3.15;;;2.40;;
11596;SDS011;5854;48.072;16.286;2023-07-24T17:44:08;3.50;;;3.08;;
11596;SDS011;5854;48.072;16.286;2023-07-24T17:46:35;3.25;;;2.92;;
11596;SDS011;5854;48.072;16.286;2023-07-24T17:49:02;2.65;;;2.45;;
11596;SDS011;5854;48.072;16.286;2023-07-24T17:51:29;2.60;;;2.40;;
11596;SDS011;5854;48.072;16.286;2023-07-24T17:53:58;3.08;;;2.88;;
11596;SDS011;5854;48.072;16.286;2023-07-24T17:56:25;2.60;;;2.40;;
11596;SDS011;5854;48.072;16.286;2023-07-24T17:58:52;3.08;;;2.85;;
11596;SDS011;5854;48.072;16.286;2023-07-24T18:01:21;2.45;;;2.30;;
11596;SDS011;5854;48.072;16.286;2023-07-24T18:03:48;2.78;;;2.55;;
11596;SDS011;5854;48.072;16.286;2023-07-24T18:06:16;3.72;;;2.92;;
11596;SDS011;5854;48.072;16.286;2023-07-24T18:08:43;3.33;;;3.03;;
11596;SDS011;5854;48.072;16.286;2023-07-24T18:11:10;4.00;;;2.95;;
11596;SDS011;5854;48.072;16.286;2023-07-24T18:16:14;2.95;;;2.70;;
11596;SDS011;5854;48.072;16.286;2023-07-24T18:31:51;2.03;;;1.90;;
11596;SDS011;5854;48.072;16.286;2023-07-24T18:44:46;2.65;;;2.35;;
11596;SDS011;5854;48.072;16.286;2023-07-24T18:47:15;2.70;;;2.00;;
11596;SDS011;5854;48.072;16.286;2023-07-24T18:49:42;3.50;;;2.20;;
11596;SDS011;5854;48.072;16.286;2023-07-24T19:48:28;1.77;;;1.67;;
11596;SDS011;5854;48.072;16.286;2023-07-24T19:50:59;1.77;;;1.63;;
11596;SDS011;5854;48.072;16.286;2023-07-24T19:53:26;3.08;;;2.42;;
11596;SDS011;5854;48.072;16.286;2023-07-24T19:55:54;3.03;;;1.75;;
11596;SDS011;5854;48.072;16.286;2023-07-24T19:58:21;2.55;;;2.35;;
11596;SDS011;5854;48.072;16.286;2023-07-24T20:00:50;2.47;;;2.28;;
11596;SDS011;5854;48.072;16.286;2023-07-24T20:18:53;1.83;;;1.73;;
11596;SDS011;5854;48.072;16.286;2023-07-24T20:31:41;2.20;;;1.73;;
11596;SDS011;5854;48.072;16.286;2023-07-24T20:36:41;1.98;;;1.80;;
11596;SDS011;5854;48.072;16.286;2023-07-24T20:39:08;1.80;;;1.70;;
11596;SDS011;5854;48.072;16.286;2023-07-24T20:41:42;2.22;;;1.80;;
11596;SDS011;5854;48.072;16.286;2023-07-24T20:44:10;1.77;;;1.52;;
11596;SDS011;5854;48.072;16.286;2023-07-24T20:49:35;1.40;;;1.25;;
11596;SDS011;5854;48.072;16.286;2023-07-24T22:01:36;1.35;;;1.25;;
11596;SDS011;5854;48.072;16.286;2023-07-24T22:04:09;1.90;;;1.48;;
11596;SDS011;5854;48.072;16.286;2023-07-24T22:06:40;1.60;;;1.50;;
11596;SDS011;5854;48.072;16.286;2023-07-24T22:09:11;3.90;;;1.63;;
11596;SDS011;5854;48.072;16.286;2023-07-24T22:11:39;1.98;;;1.33;;
11596;SDS011;5854;48.072;16.286;2023-07-24T22:14:07;1.42;;;1.33;;
11596;SDS011;5854;48.072;16.286;2023-07-24T22:16:49;1.80;;;1.70;;
11596;SDS011;5854;48.072;16.286;2023-07-24T22:19:19;1.65;;;1.55;;
11596;SDS011;5854;48.072;16.286;2023-07-24T22:24:19;1.60;;;1.50;;
11596;SDS011;5854;48.072;16.286;2023-07-24T22:26:47;3.72;;;1.58;;
11596;SDS011;5854;48.072;16.286;2023-07-24T22:29:16;2.28;;;1.80;;
11596;SDS011;5854;48.072;16.286;2023-07-24T22:31:50;3.72;;;1.52;;
11596;SDS011;5854;48.072;16.286;2023-07-24T22:34:18;1.45;;;1.33;;
11596;SDS011;5854;48.072;16.286;2023-07-24T22:36:51;1.33;;;1.20;;
11596;SDS011;5854;48.072;16.286;2023-07-24T22:39:22;1.58;;;1.35;;
11596;SDS011;5854;48.072;16.286;2023-07-24T22:41:51;2.13;;;1.83;;
11596;SDS011;5854;48.072;16.286;2023-07-24T22:44:18;1.58;;;1.40;;
11596;SDS011;5854;48.072;16.286;2023-07-24T22:46:48;1.67;;;1.58;;
11596;SDS011;5854;48.072;16.286;2023-07-24T22:49:20;1.50;;;1.40;;
11596;SDS011;5854;48.072;16.286;2023-07-24T22:51:48;2.45;;;1.90;;
11596;SDS011;5854;48.072;16.286;2023-07-24T22:54:15;2.72;;;1.65;;
11596;SDS011;5854;48.072;16.286;2023-07-24T22:59:16;1.60;;;1.50;;
11596;SDS011;5854;48.072;16.286;2023-07-24T23:01:57;1.80;;;1.70;;
11596;SDS011;5854;48.072;16.286;2023-07-24T23:04:31;1.33;;;1.23;;
11596;SDS011;5854;48.072;16.286;2023-07-24T23:06:59;1.65;;;1.55;;
11596;SDS011;5854;48.072;16.286;2023-07-24T23:09:26;1.35;;;1.25;;
11596;SDS011;5854;48.072;16.286;2023-07-24T23:11:54;1.95;;;1.30;;
11596;SDS011;5854;48.072;16.286;2023-07-24T23:14:21;1.60;;;1.50;;
11596;SDS011;5854;48.072;16.286;2023-07-24T23:16:49;3.00;;;1.73;;
11596;SDS011;5854;48.072;16.286;2023-07-24T23:19:16;1.58;;;1.30;;
11596;SDS011;5854;48.072;16.286;2023-07-24T23:21:44;2.47;;;2.03;;
11596;SDS011;5854;48.072;16.286;2023-07-24T23:24:12;1.75;;;1.65;;
11596;SDS011;5854;48.072;16.286;2023-07-24T23:26:39;2.65;;;1.58;;
11596;SDS011;5854;48.072;16.286;2023-07-24T23:29:06;1.42;;;1.33;;
11596;SDS011;5854;48.072;16.286;2023-07-24T23:31:33;1.67;;;1.58;;
11596;SDS011;5854;48.072;16.286;2023-07-24T23:34:00;1.45;;;1.25;;
11596;SDS011;5854;48.072;16.286;2023-07-24T23:36:28;1.55;;;1.45;;
11596;SDS011;5854;48.072;16.286;2023-07-24T23:38:56;1.58;;;1.48;;
11596;SDS011;5854;48.072;16.286;2023-07-24T23:41:24;4.43;;;1.48;;
11596;SDS011;5854;48.072;16.286;2023-07-24T23:43:52;1.25;;;1.10;;
11596;SDS011;5854;48.072;16.286;2023-07-24T23:46:19;1.50;;;1.10;;
11596;SDS011;5854;48.072;16.286;2023-07-24T23:48:47;1.00;;;0.90;;
11596;SDS011;5854;48.072;16.286;2023-07-24T23:51:15;1.55;;;1.45;;
11596;SDS011;5854;48.072;16.286;2023-07-24T23:53:44;1.35;;;1.25;;
11596;SDS011;5854;48.072;16.286;2023-07-24T23:56:14;2.40;;;1.05;;
11596;SDS011;5854;48.072;16.286;2023-07-24T23:58:43;1.63;;;1.48;;
